This is the latest recevied weather packets stored in our database for station/object VK1KCM-5. If no packets are shown the sender has not sent any weather packets the latest 10 day(s).
| Time | Temp. | Humidity | Pressure | Rain* | Wind** | Luminosity | Snow |
|---|---|---|---|---|---|---|---|
| 1787961911 | 12.78° C | 69% | 1029.5 hPa | 0 mm | - | - | - |
| 1787961636 | 12.78° C | 70% | 1029.4 hPa | 0 mm | - | - | - |
| 1787961378 | 12.78° C | 70% | 1029.4 hPa | 0 mm | - | - | - |
| 1787961078 | 12.22° C | 71% | 1029.6 hPa | 0 mm | - | - | - |
| 1787960820 | 11.67° C | 72% | 1029.6 hPa | 0 mm | - | - | - |
| 1787960563 | 11.11° C | 74% | 1029.8 hPa | 0 mm | - | - | - |
| 1787960283 | 11.11° C | 74% | 1029.9 hPa | 0 mm | - | - | - |
| 1787960023 | 10° C | 79% | 1030.5 hPa | 0 mm | - | - | - |
| 1787959748 | 10° C | 79% | 1030.2 hPa | 0 mm | - | - | - |
| 1787959451 | 10° C | 79% | 1030.4 hPa | 0 mm | - | - | - |
| 1787959186 | 10° C | 80% | 1030.4 hPa | 0 mm | - | - | - |
| 1787958943 | 10° C | 80% | 1030.4 hPa | 0 mm | - | - | - |
| 1787958678 | 8.33° C | 92% | 1030.4 hPa | 0 mm | - | - | - |
| 1787958428 | 7.78° C | 95% | 1030.5 hPa | 0 mm | - | - | - |
| 1787958166 | 7.22° C | 98% | 1030.6 hPa | 0 mm | - | - | - |
| 1787957891 | 7.22° C | 99% | 1030.9 hPa | 0 mm | - | - | - |
| 1787957648 | 6.67° C | 99% | 1030.9 hPa | 0 mm | - | - | - |
| 1787957383 | 6.11° C | 99% | 1031.1 hPa | 0 mm | - | - | - |
| 1787957088 | 6.11° C | 99% | 1031 hPa | 0 mm | - | - | - |
| 1787956788 | 5.56° C | 99% | 1031.1 hPa | 0 mm | - | - | - |
| 1787956497 | 5.56° C | 99% | 1031 hPa | 0 mm | - | - | - |
| 1787956238 | 5.56° C | 99% | 1031 hPa | 0 mm | - | - | - |
| 1787955991 | 5° C | 99% | 1031 hPa | 0 mm | - | - | - |
| 1787955731 | 5.56° C | 99% | 1030.8 hPa | 0 mm | - | - | - |
| 1787955468 | 5.56° C | 99% | 1030.7 hPa | 0 mm | - | - | - |
* Rain latest hour (hover to see other rain measurements)
** Current wind speed in m/s (hover to see current wind gust speed)